Relevés horaires Bierset (Belgique)


Relevés horaires à Bierset - Mercredi 06 Mai 2020
Heure UTC1 Température [°C] Vent [km/h] Hum. [%] Pres.4 [hPa] Visi. [Km] Nébu. [octa] Préc.5 [mm] Cond.
2m. Res. Ros. Dir.2 Vit. Moy. Raf.3
23:00 11.6 11.6 1.1 ESE 3.7 3.7 7.4 48 1025.8(0.6/3h) 30 0/8 -- --
22:00 12.0 12.0 0.4 E 1.9 3.7 11.1 45 1025.6(0.8/3h) 30 2/8 -- --
21:00 12.7 12.7 0.4 NE 3.7 9.3 11.1 43 1025.3(0.7/3h) 30 2/8 -- --
20:00 12.7 12.7 0.1 NNE 1.9 5.6 11.1 42 1025.2(0.7/3h) 30 2/8 -- --
19:00 13.1 13.1 0.1 NE 5.6 9.3 11.1 41 1024.7(0.5/3h) 30 0/8 -- --
18:00 15.1 14.8 -0.8 NE 9.3 11.1 16.7 34 1024.4(0.3/3h) 30 0/8 0/12h
--
17:00 16.1 16 -0.2 NNE 9.3 11.1 16.7 33 1024.2(-0.1/3h) 30 0/8 -- --
16:00 16.3 16.3 -0.6 N 7.4 9.3 14.8 32 1024(-0.3/3h) 30 0/8 -- --
15:00 17.0 17.0 0.9 N 7.4 9.3 14.8 34 1024(-0.5/3h) 30 0/8 -- --
14:00 16.9 16.9 0.3 NNE 5.6 9.3 14.8 32 1024.2(-0.3/3h) 30 0/8 -- --
13:00 16.3 16.3 -1.5 ENE 5.6 7.4 13.0 30 1024.4(-0.4/3h) 30 0/8 -- --
12:00 16.0 16.0 -1.9 ENE 7.4 7.4 18.5 29 1024.5(-0.2/3h) 30 0/8 0/6h
--
11:00 15.1 15.1 -2.3 E 5.6 5.6 13.0 30 1024.7(0.0/3h) 30 0/8 -- --
10:00 14.8 14.8 -2.5 E 3.7 7.4 13.0 30 1024.9(0.3/3h) 30 0/8 -- --
09:00 13.1 13.1 -2.7 ESE 5.6 7.4 18.5 33 1025(0.8/3h) 30 0/8 -- --
08:00 12.3 12.3 -1.3 NNO 3.7 5.6 9.3 39 1025(1.1/3h) 30 0/8 -- --
07:00 10.1 9.7 -0.9 E 5.6 5.6 13.0 46 1024.9(1.4/3h) 30 0/8 -- --
06:00 7.4 7.4 0.8 ESE 3.7 5.6 16.7 63 1024.6(1.0/3h) 30 1/8 0/12h
--
05:00 5.5 5.5 -0.3 NE 3.7 5.6 9.3 66 1024.4(0.9/3h) 30 1/8 -- --
04:00 5.0 5.0 0.7 ESE 3.7 5.6 16.7 74 1023.9(0.4/3h) 30 1/8 -- --
03:00 6.2 5.2 -0.8 E 5.6 5.6 16.7 61 1023.6(-0.1/3h) 30 1/8 -- --
02:00 7.2 6.4 -0.8 E 5.6 5.6 9.3 57 1023.3(0.1/3h) 30 1/8 -- --
01:00 7.4 7.4 -0.4 ESE 3.7 3.7 16.7 58 1023.3(0.2/3h) 30 1/8 -- --
00:00 8.3 8.3 -0.8 E 3.7 13.0 16.7 53 1023.5(1.1/3h) 30 1/8 0/6h
0/24h
--

1 Coordinated Universal Time. Actuellement il est 17:00 locale et 15:00 UTC.

2 Le vent souffle depuis la direction indiquée vers la direction oposée.

3 Les rafales max. sont disponible 40 min après l'heure du relevé.

4 Pour les stations d'altitude (plus de 600m) le géopotentiel du niveau le plus proche de la pression obligatoire est indiqué.

5 Les stations disposant d'un diffuseur peuvent indiquer "trace". Cela signifie que des précipitations ont touchés le sol mais que la quantité est inférieure à 0.1 mm.

Récapitulatif de la journée
Température [°C] Vent [km/h] Ensoleillement4 [h] Precipitations totale5 [mm] Pression [Hpa]
Min1 Max.2 Moy.3 Max. Min Max.
4.9 17.4 7.2 18.5 0 h 0 min 0 1023.3 1025.8

1 Température minimale relevée entre 18:00 UTC la veille et 18:00 UTC le jour donné.

2 Température maximale relevée entre 06:00 UTC le jour donné et 06:00 UTC le lendemain.

3 Vent moyen de la journée basé sur les relevés horaires.

4 Ensoleillement en heures relevé entre 06:00 UTC la veille et 06:00 UTC le jour donné.

5 Précipitations totales tombées entre 06:00 UTC la jour donné et 06:00 UTC le lendemain.

Graphiques horaires